Time;durP1;ratioP1;P1;durP2;ratioP2;P2;SDS_P1;SDS_P2;PMS_P1;PMS_P2;Temp;Humidity;BMP_temperature;BMP_pressure;BME280_temperature;BME280_humidity;BME280_pressure;Samples;Min_cycle;Max_cycle;Signal;HPM_P1;HPM_P2
2022/03/02 00:02:13;;;;;;;54.87;30.43;;;;;;;-5.20;70.22;101061.89;1768458;79;21011;-64
2022/03/02 00:04:39;;;;;;;60.73;31.20;;;;;;;-5.22;70.28;101059.68;1770843;80;22059;-64
2022/03/02 00:07:12;;;;;;;61.30;31.40;;;;;;;-5.21;70.42;101056.34;1768339;79;21036;-64
2022/03/02 00:09:39;;;;;;;58.10;30.57;;;;;;;-5.20;70.38;101066.98;1766935;81;20948;-64
2022/03/02 00:12:06;;;;;;;61.95;32.17;;;;;;;-5.18;70.46;101062.82;1768403;81;20878;-64
2022/03/02 00:14:32;;;;;;;67.30;33.35;;;;;;;-5.17;70.56;101056.91;1768071;79;21563;-64
2022/03/02 00:16:59;;;;;;;53.25;30.12;;;;;;;-5.16;70.55;101047.58;1770314;79;20928;-64
2022/03/02 00:19:26;;;;;;;55.73;30.67;;;;;;;-5.15;70.60;101047.17;1769712;81;21060;-64
2022/03/02 00:21:52;;;;;;;56.53;30.00;;;;;;;-5.15;70.53;101053.53;1771270;80;20879;-64
2022/03/02 00:24:20;;;;;;;61.50;30.33;;;;;;;-5.18;70.52;101051.36;1765454;79;20889;-64
2022/03/02 00:26:46;;;;;;;51.35;28.85;;;;;;;-5.24;70.45;101044.77;1768886;79;20918;-64
2022/03/02 00:29:13;;;;;;;56.80;28.53;;;;;;;-5.28;70.54;101045.45;1770732;79;20934;-64
2022/03/02 00:31:40;;;;;;;58.57;29.80;;;;;;;-5.36;70.59;101043.02;1767869;81;21069;-64
2022/03/02 00:34:06;;;;;;;57.13;28.13;;;;;;;-5.44;70.61;101041.84;1771006;79;20968;-64
2022/03/02 00:36:33;;;;;;;54.17;30.47;;;;;;;-5.52;70.72;101040.27;1771151;79;21422;-64
2022/03/02 00:39:00;;;;;;;59.93;33.20;;;;;;;-5.54;70.83;101041.05;1770827;81;20977;-64
2022/03/02 00:41:26;;;;;;;61.23;32.13;;;;;;;-5.53;70.90;101035.14;1766491;79;20927;-64
2022/03/02 00:43:53;;;;;;;57.23;30.90;;;;;;;-5.53;70.92;101032.59;1770541;79;21961;-64
2022/03/02 00:46:20;;;;;;;56.45;30.40;;;;;;;-5.55;70.90;101029.12;1770521;81;26593;-64
2022/03/02 00:48:47;;;;;;;68.77;31.60;;;;;;;-5.57;70.97;101023.09;1770599;81;20961;-64
2022/03/02 00:51:14;;;;;;;56.58;30.45;;;;;;;-5.59;71.07;101023.05;1770058;80;20952;-64
2022/03/02 00:53:42;;;;;;;51.80;28.95;;;;;;;-5.57;71.09;101026.91;1786885;80;20953;-64
2022/03/02 00:56:09;;;;;;;57.00;30.72;;;;;;;-5.62;71.16;101017.84;1762498;80;21080;-64
2022/03/02 00:58:35;;;;;;;54.38;31.02;;;;;;;-5.65;71.19;101018.59;1768454;80;20919;-64
2022/03/02 01:01:02;;;;;;;54.30;29.00;;;;;;;-5.65;71.24;101014.77;1767872;81;20939;-64
2022/03/02 01:03:29;;;;;;;50.23;28.17;;;;;;;-5.64;71.23;101010.14;1787719;78;21133;-64
2022/03/02 01:05:55;;;;;;;50.03;26.93;;;;;;;-5.65;71.29;101010.95;1790540;78;21089;-64
2022/03/02 01:08:22;;;;;;;60.10;28.23;;;;;;;-5.67;71.33;101013.84;1790045;78;20893;-64
2022/03/02 01:10:48;;;;;;;51.30;27.97;;;;;;;-5.70;71.38;101004.81;1786064;78;20937;-64
2022/03/02 01:13:15;;;;;;;53.38;27.48;;;;;;;-5.69;71.46;100998.91;1792900;78;21503;-64
2022/03/02 01:15:42;;;;;;;50.03;25.87;;;;;;;-5.67;71.60;101004.07;1747672;81;20900;-64
2022/03/02 01:18:08;;;;;;;51.57;27.47;;;;;;;-5.66;71.75;101003.25;1775403;79;20914;-64
2022/03/02 01:20:35;;;;;;;47.15;28.85;;;;;;;-5.66;71.72;101000.33;1776140;80;21044;-64
2022/03/02 01:23:02;;;;;;;52.13;29.45;;;;;;;-5.68;71.74;100987.94;1773096;80;20908;-64
2022/03/02 01:25:47;;;;;;;49.90;28.27;;;;;;;-5.68;71.72;100985.39;1776477;79;20960;-64
2022/03/02 01:28:16;;;;;;;49.53;27.32;;;;;;;-5.67;71.74;100994.75;1774355;80;21520;-64
2022/03/02 01:30:43;;;;;;;50.28;26.70;;;;;;;-5.71;71.71;100995.45;1774275;80;20899;-64
2022/03/02 01:33:09;;;;;;;54.88;26.93;;;;;;;-5.75;71.74;100991.05;1744708;80;21048;-64
2022/03/02 01:35:43;;;;;;;45.03;26.17;;;;;;;-5.79;71.75;100982.84;1779171;80;20962;-64
2022/03/02 01:38:10;;;;;;;48.55;25.55;;;;;;;-5.83;71.77;100979.70;1781508;80;21944;-64
2022/03/02 01:40:37;;;;;;;46.53;23.50;;;;;;;-5.89;71.80;100982.01;1758544;80;20878;-64
2022/03/02 01:43:04;;;;;;;46.58;22.98;;;;;;;-5.92;71.93;100981.89;1756450;80;21371;-64
2022/03/02 01:45:31;;;;;;;43.95;26.12;;;;;;;-5.94;72.02;100973.36;1771767;79;21032;-64
2022/03/02 01:48:03;;;;;;;40.90;25.47;;;;;;;-5.94;72.15;100963.19;1768577;79;20964;-64
2022/03/02 01:50:31;;;;;;;43.50;25.30;;;;;;;-5.92;72.17;100956.45;1770367;80;20998;-64
2022/03/02 01:52:58;;;;;;;46.50;25.92;;;;;;;-5.90;72.22;100959.94;1772648;79;20917;-65
2022/03/02 01:55:25;;;;;;;36.60;21.57;;;;;;;-5.91;72.19;100958.18;1769415;79;21500;-64
2022/03/02 01:57:52;;;;;;;44.33;23.42;;;;;;;-5.92;72.18;100956.05;1772503;79;21042;-64
2022/03/02 02:00:22;;;;;;;43.30;23.92;;;;;;;-5.94;72.28;100951.73;1778593;79;20836;-64
2022/03/02 02:02:50;;;;;;;42.67;22.65;;;;;;;-5.96;72.28;100949.56;1772519;80;20923;-64
2022/03/02 02:05:18;;;;;;;42.75;23.45;;;;;;;-5.98;72.25;100944.81;1777651;80;20944;-64
2022/03/02 02:07:49;;;;;;;41.83;23.25;;;;;;;-5.99;72.36;100953.23;1779248;79;20946;-64
2022/03/02 02:10:16;;;;;;;43.05;23.80;;;;;;;-6.01;72.36;100947.23;1780689;80;21041;-64
2022/03/02 02:12:43;;;;;;;41.23;23.15;;;;;;;-5.99;72.54;100946.88;1781000;79;20951;-64
2022/03/02 02:15:10;;;;;;;41.23;26.70;;;;;;;-5.95;72.67;100939.84;1779033;80;20938;-64
2022/03/02 02:17:37;;;;;;;47.30;25.95;;;;;;;-5.89;72.68;100942.59;1781315;80;20934;-64
2022/03/02 02:20:06;;;;;;;47.43;25.52;;;;;;;-5.83;72.73;100928.83;1778679;79;20958;-64
2022/03/02 02:22:39;;;;;;;42.60;24.65;;;;;;;-5.79;72.60;100932.37;1780818;79;21038;-64
2022/03/02 02:25:06;;;;;;;40.43;21.25;;;;;;;-5.82;72.52;100929.69;1782247;79;20923;-64
2022/03/02 02:27:33;;;;;;;38.30;22.22;;;;;;;-5.86;72.62;100936.34;1777847;80;26490;-64
2022/03/02 02:30:02;;;;;;;45.88;24.15;;;;;;;-5.91;72.58;100931.47;1779570;80;20931;-64
2022/03/02 02:32:29;;;;;;;44.10;22.22;;;;;;;-5.97;72.54;100927.46;1777499;80;20950;-64
2022/03/02 02:34:57;;;;;;;43.63;23.45;;;;;;;-6.02;72.65;100921.33;1780965;79;20999;-64
2022/03/02 02:37:25;;;;;;;43.52;23.57;;;;;;;-6.05;72.67;100918.66;1779930;79;20946;-64
2022/03/02 02:40:00;;;;;;;39.38;22.65;;;;;;;-6.09;72.67;100922.77;1774144;80;20936;-64
2022/03/02 02:42:27;;;;;;;42.88;23.67;;;;;;;-6.11;72.77;100922.70;1778873;79;21542;-64
2022/03/02 02:44:55;;;;;;;39.45;22.70;;;;;;;-6.12;72.86;100924.79;1781385;79;20958;-64
2022/03/02 02:47:24;;;;;;;42.38;23.83;;;;;;;-6.09;73.02;100919.83;1773096;79;21099;-64
2022/03/02 02:49:50;;;;;;;43.28;23.52;;;;;;;-6.01;73.18;100926.48;1773440;80;20926;-64
2022/03/02 02:52:17;;;;;;;35.85;21.90;;;;;;;-5.92;73.20;100915.77;1777324;80;20904;-64
2022/03/02 02:54:44;;;;;;;49.75;22.93;;;;;;;-5.79;73.34;100923.06;1778974;80;20887;-64
2022/03/02 02:57:10;;;;;;;38.80;21.35;;;;;;;-5.75;73.16;100919.81;1773026;79;20981;-64
2022/03/02 02:59:37;;;;;;;44.88;23.27;;;;;;;-5.70;73.21;100915.77;1777107;79;22209;-64
2022/03/02 03:02:04;;;;;;;46.13;22.40;;;;;;;-5.67;73.10;100922.23;1780859;79;20913;-64
2022/03/02 03:04:31;;;;;;;37.08;21.17;;;;;;;-5.70;73.03;100921.27;1780590;80;20948;-64
2022/03/02 03:06:57;;;;;;;44.73;24.40;;;;;;;-5.72;73.10;100905.92;1779896;80;21450;-64
2022/03/02 03:09:24;;;;;;;44.03;26.60;;;;;;;-5.74;73.07;100911.39;1776285;79;21161;-64
2022/03/02 03:11:51;;;;;;;41.00;22.90;;;;;;;-5.79;72.91;100904.39;1772604;79;21913;-64
2022/03/02 03:14:17;;;;;;;63.27;25.03;;;;;;;-5.86;72.94;100906.68;1775191;79;20885;-64
2022/03/02 03:16:44;;;;;;;41.53;21.25;;;;;;;-5.90;73.05;100909.93;1774664;80;20957;-64
2022/03/02 03:19:11;;;;;;;40.00;23.73;;;;;;;-5.95;73.07;100896.61;1778262;80;21343;-64
2022/03/02 03:21:38;;;;;;;36.85;20.68;;;;;;;-6.00;73.17;100898.97;1781937;79;20940;-64
2022/03/02 03:24:05;;;;;;;36.40;21.20;;;;;;;-6.05;73.22;100893.23;1778064;79;21201;-64
2022/03/02 03:26:31;;;;;;;43.42;23.10;;;;;;;-6.11;73.33;100882.02;1778321;79;20883;-64
2022/03/02 03:28:58;;;;;;;37.93;20.77;;;;;;;-6.12;73.43;100889.20;1779046;80;20923;-64
2022/03/02 03:31:25;;;;;;;35.33;20.00;;;;;;;-6.15;73.43;100890.35;1774939;80;20903;-64
2022/03/02 03:33:52;;;;;;;45.67;22.80;;;;;;;-6.17;73.49;100891.95;1780513;80;21413;-64
2022/03/02 03:36:18;;;;;;;40.43;21.27;;;;;;;-6.19;73.52;100882.16;1775728;80;21001;-64
2022/03/02 03:38:45;;;;;;;37.37;22.13;;;;;;;-6.19;73.61;100878.72;1778714;80;21384;-64
2022/03/02 03:41:12;;;;;;;39.63;21.62;;;;;;;-6.17;73.69;100883.47;1778995;79;20941;-64
2022/03/02 03:43:39;;;;;;;39.93;21.63;;;;;;;-6.17;73.66;100884.33;1778294;79;21674;-64
2022/03/02 03:46:05;;;;;;;38.53;22.13;;;;;;;-6.19;73.68;100884.70;1780779;80;20938;-64
2022/03/02 03:48:32;;;;;;;46.43;27.53;;;;;;;-6.20;73.66;100883.36;1777855;80;21052;-64
2022/03/02 03:50:59;;;;;;;35.83;21.12;;;;;;;-6.21;73.70;100885.03;1780513;79;20910;-64
2022/03/02 03:53:26;;;;;;;36.45;21.48;;;;;;;-6.22;73.70;100875.66;1778455;79;21028;-64
2022/03/02 03:55:52;;;;;;;43.63;22.48;;;;;;;-6.22;73.79;100882.42;1778999;80;21037;-64
2022/03/02 03:58:19;;;;;;;44.25;21.33;;;;;;;-6.25;73.77;100875.53;1775559;79;20922;-64
2022/03/02 04:00:46;;;;;;;32.70;21.68;;;;;;;-6.28;73.74;100877.97;1774184;80;21075;-64
2022/03/02 04:03:13;;;;;;;47.23;22.58;;;;;;;-6.33;73.81;100871.83;1773906;80;20958;-64
2022/03/02 04:05:39;;;;;;;34.67;19.62;;;;;;;-6.36;73.85;100874.25;1772568;79;21063;-64
2022/03/02 04:08:09;;;;;;;34.27;18.93;;;;;;;-6.37;73.92;100872.53;1768514;79;20897;-64
2022/03/02 04:10:35;;;;;;;39.15;22.55;;;;;;;-6.37;74.00;100867.45;1772317;80;20917;-64
2022/03/02 04:13:02;;;;;;;34.10;20.63;;;;;;;-6.36;74.05;100864.08;1769489;80;21057;-64
2022/03/02 04:15:29;;;;;;;36.30;21.50;;;;;;;-6.46;74.15;100828.98;1774447;80;20938;-64
2022/03/02 04:17:55;;;;;;;29.97;21.27;;;;;;;-6.46;74.15;100828.98;1773465;80;20930;-63
2022/03/02 04:20:22;;;;;;;32.70;18.70;;;;;;;-6.38;74.06;100846.25;1769843;80;20978;-64
2022/03/02 04:22:49;;;;;;;43.98;19.95;;;;;;;-6.37;74.09;100844.57;1769132;80;21530;-64
2022/03/02 04:25:15;;;;;;;40.23;18.17;;;;;;;-6.38;74.07;100853.02;1774094;79;21035;-64
2022/03/02 04:27:42;;;;;;;30.88;17.25;;;;;;;-6.41;74.08;100851.59;1773571;80;21431;-64
2022/03/02 04:30:11;;;;;;;36.08;20.15;;;;;;;-6.45;74.13;100844.67;1770910;80;20893;-64
2022/03/02 04:32:38;;;;;;;39.58;20.68;;;;;;;-6.49;74.16;100843.70;1739112;80;20859;-64
2022/03/02 04:35:08;;;;;;;38.50;19.77;;;;;;;-6.48;74.27;100836.52;1774726;79;20960;-64
2022/03/02 04:37:35;;;;;;;39.10;20.05;;;;;;;-6.46;74.31;100837.45;1770118;79;21048;-64
2022/03/02 04:40:02;;;;;;;39.10;18.20;;;;;;;-6.44;74.41;100831.15;1772844;80;21481;-64
2022/03/02 04:42:29;;;;;;;32.20;18.90;;;;;;;-6.44;74.50;100837.50;1773157;79;27432;-63
2022/03/02 04:44:55;;;;;;;49.60;18.50;;;;;;;-6.44;74.44;100842.58;1770428;79;21532;-64
2022/03/02 04:47:22;;;;;;;39.43;20.77;;;;;;;-6.47;74.40;100844.59;1768291;80;20894;-64
2022/03/02 04:49:49;;;;;;;39.85;21.35;;;;;;;-6.57;74.44;100820.52;1774177;79;21050;-64
2022/03/02 04:52:16;;;;;;;45.45;22.85;;;;;;;-6.45;74.61;100835.78;1782405;79;20927;-64
2022/03/02 04:57:28;;;;;;;44.88;21.42;;;;;;;-6.44;74.56;100822.25;1775307;79;20918;-64
2022/03/02 04:59:54;;;;;;;40.25;22.42;;;;;;;-6.43;74.63;100822.73;1782070;79;21008;-64
2022/03/02 05:02:21;;;;;;;47.03;24.07;;;;;;;-6.44;74.68;100815.53;1775213;80;21025;-63
2022/03/02 05:04:49;;;;;;;43.65;22.15;;;;;;;-6.43;74.70;100816.39;1767423;80;20970;-63
2022/03/02 05:07:16;;;;;;;59.15;25.68;;;;;;;-6.44;74.73;100811.72;1759820;80;21393;-64
2022/03/02 05:09:46;;;;;;;48.38;25.70;;;;;;;-6.45;74.74;100807.83;1780247;79;28009;-64
2022/03/02 05:12:13;;;;;;;62.35;28.02;;;;;;;-6.45;74.73;100805.29;1781036;79;20938;-64
2022/03/02 05:14:40;;;;;;;56.17;29.13;;;;;;;-6.46;74.77;100803.56;1770834;80;21900;-64
2022/03/02 05:17:06;;;;;;;63.43;29.63;;;;;;;-6.44;74.75;100801.92;1785635;79;20903;-64
2022/03/02 05:19:33;;;;;;;55.33;27.70;;;;;;;-6.44;74.76;100798.11;1786812;80;21017;-64
2022/03/02 05:22:00;;;;;;;58.80;29.18;;;;;;;-6.42;74.83;100801.59;1771591;79;20894;-64
2022/03/02 05:24:26;;;;;;;59.75;29.12;;;;;;;-6.38;74.96;100789.48;1796767;79;20844;-64
2022/03/02 05:26:53;;;;;;;56.77;28.97;;;;;;;-6.35;74.90;100797.22;1787482;79;21050;-63
2022/03/02 05:29:19;;;;;;;76.03;30.77;;;;;;;-6.32;74.89;100794.79;1787739;80;20891;-64
2022/03/02 05:31:46;;;;;;;64.90;28.30;;;;;;;-6.33;74.82;100795.58;1784584;79;21217;-63
2022/03/02 05:34:13;;;;;;;75.13;32.77;;;;;;;-6.37;74.85;100796.28;1782545;80;20970;-64
2022/03/02 05:36:39;;;;;;;73.50;32.77;;;;;;;-6.37;74.92;100793.75;1782198;79;20950;-64
2022/03/02 05:39:06;;;;;;;72.13;32.43;;;;;;;-6.34;74.96;100798.94;1781287;80;22052;-64
2022/03/02 05:41:36;;;;;;;73.20;30.88;;;;;;;-6.31;74.93;100793.97;1782221;80;20895;-64
2022/03/02 05:44:03;;;;;;;86.72;28.45;;;;;;;-6.29;75.00;100787.28;1782854;80;20887;-64
2022/03/02 05:46:29;;;;;;;49.03;23.40;;;;;;;-6.26;74.97;100792.48;1780050;79;21434;-63
2022/03/02 05:48:56;;;;;;;87.40;28.80;;;;;;;-6.26;75.02;100792.48;1774379;80;20954;-64
2022/03/02 05:51:25;;;;;;;53.33;26.02;;;;;;;-6.21;75.13;100793.93;1772470;79;21673;-64
2022/03/02 05:53:52;;;;;;;40.65;23.02;;;;;;;-6.04;75.24;100793.28;1779863;79;21444;-64
2022/03/02 05:56:19;;;;;;;46.33;23.70;;;;;;;-5.75;75.28;100786.25;1783218;80;20906;-63
2022/03/02 05:58:46;;;;;;;;;;;;;;;-5.38;75.25;100793.89;1775028;80;20859;-63
2022/03/02 06:01:12;;;;;;;38.57;20.57;;;;;;;-4.92;75.42;100785.25;1778475;80;20096;-63
2022/03/02 06:03:39;;;;;;;36.08;21.35;;;;;;;-4.42;75.34;100780.88;1780595;80;21093;-64
2022/03/02 06:06:07;;;;;;;52.33;22.57;;;;;;;-3.93;75.18;100777.19;1775373;79;20850;-64
2022/03/02 06:08:34;;;;;;;50.70;22.95;;;;;;;-3.49;74.68;100782.66;1775011;80;21480;-64
2022/03/02 06:11:01;;;;;;;34.07;19.33;;;;;;;-3.28;74.18;100777.22;1774785;80;20881;-64
2022/03/02 06:13:29;;;;;;;28.27;18.40;;;;;;;-3.09;73.94;100784.09;1779986;79;21162;-65
2022/03/02 06:15:59;;;;;;;35.75;21.25;;;;;;;-2.92;73.84;100784.95;1783843;79;21006;-64
2022/03/02 06:18:27;;;;;;;36.10;22.52;;;;;;;-2.65;74.02;100773.66;1779431;80;20927;-65
2022/03/02 06:21:00;;;;;;;;;;;;;;;-2.28;74.15;100771.92;1785359;80;20946;-65
2022/03/02 06:23:22;;;;;;;63.78;22.40;;;;;;;-2.04;73.64;100777.56;1763183;80;20131;-65
2022/03/02 06:25:50;;;;;;;59.42;24.98;;;;;;;-1.87;73.56;100769.37;1784932;79;20949;-65
2022/03/02 06:28:16;;;;;;;48.92;27.85;;;;;;;-1.65;73.58;100765.54;1774631;79;21444;-65
2022/03/02 06:30:43;;;;;;;37.13;23.30;;;;;;;-1.37;73.40;100760.50;1749962;80;20863;-65
2022/03/02 06:33:14;;;;;;;62.67;24.98;;;;;;;-1.15;73.22;100763.88;1771408;80;21442;-65
2022/03/02 06:35:43;;;;;;;40.98;21.20;;;;;;;-0.99;73.15;100769.25;1759333;80;20978;-65
2022/03/02 06:38:10;;;;;;;66.72;29.10;;;;;;;-0.81;73.12;100756.73;1762688;80;20932;-65
2022/03/02 06:40:37;;;;;;;63.15;27.75;;;;;;;-0.60;73.31;100765.59;1779681;79;21060;-65
2022/03/02 06:43:11;;;;;;;41.58;22.77;;;;;;;-0.29;73.31;100756.61;1780877;80;20977;-65
2022/03/02 06:45:58;;;;;;;50.15;19.98;;;;;;;-0.09;72.98;100754.30;1775126;80;20895;-65
2022/03/02 06:49:06;;;;;;;35.00;18.82;;;;;;;0.05;73.02;100763.03;1778481;79;20946;-64
2022/03/02 06:51:35;;;;;;;27.55;18.30;;;;;;;0.17;73.02;100757.21;1777338;80;20954;-64
2022/03/02 06:54:04;;;;;;;47.53;19.25;;;;;;;0.35;73.21;100747.55;1769259;79;21245;-65
2022/03/02 06:56:39;;;;;;;32.23;17.80;;;;;;;0.49;73.01;100748.98;1753760;79;20954;-64
2022/03/02 06:59:10;;;;;;;35.55;21.62;;;;;;;0.59;73.04;100754.23;1773130;80;21412;-64
2022/03/02 07:01:41;;;;;;;66.75;41.10;;;;;;;0.65;72.99;100756.00;1773565;79;20907;-64
2022/03/02 07:04:12;;;;;;;71.97;45.03;;;;;;;0.83;73.22;100752.30;1771636;80;20871;-64
2022/03/02 07:06:40;;;;;;;47.00;24.75;;;;;;;1.06;73.25;100747.77;1759347;80;21457;-65
2022/03/02 07:09:09;;;;;;;46.65;21.77;;;;;;;1.23;73.18;100747.90;1772398;79;20899;-65
2022/03/02 07:11:35;;;;;;;40.48;18.32;;;;;;;1.33;73.23;100749.70;1773271;80;21564;-65
2022/03/02 07:14:02;;;;;;;54.90;23.25;;;;;;;1.39;73.15;100744.59;1765140;79;20906;-64
2022/03/02 07:16:30;;;;;;;69.47;19.57;;;;;;;1.45;73.29;100742.05;1778075;79;20984;-65
2022/03/02 07:18:57;;;;;;;48.02;19.23;;;;;;;1.54;73.38;100743.41;1777917;80;24191;-65
2022/03/02 07:21:29;;;;;;;37.30;18.82;;;;;;;1.63;73.37;100750.75;1778921;80;20918;-64
2022/03/02 07:24:19;;;;;;;37.53;23.85;;;;;;;1.65;73.35;100747.73;1777628;80;20914;-64
2022/03/02 07:26:51;;;;;;;38.53;24.77;;;;;;;1.55;73.49;100746.41;1773700;79;20935;-64
2022/03/02 07:29:23;;;;;;;47.83;25.25;;;;;;;1.44;73.79;100746.77;1776091;79;20879;-64
2022/03/02 07:31:53;;;;;;;46.35;24.92;;;;;;;1.50;74.07;100742.94;1754472;79;21022;-64
2022/03/02 07:34:21;;;;;;;47.98;25.70;;;;;;;1.52;74.17;100750.25;1777645;79;21487;-64
2022/03/02 07:36:48;;;;;;;43.90;24.30;;;;;;;1.45;74.30;100735.61;1773270;80;20899;-64
2022/03/02 07:39:15;;;;;;;45.00;25.10;;;;;;;1.44;74.76;100742.91;1765613;80;20891;-64
2022/03/02 07:41:41;;;;;;;57.43;24.47;;;;;;;1.37;74.54;100738.56;1763945;79;20892;-64
2022/03/02 07:44:09;;;;;;;66.40;34.10;;;;;;;1.35;74.71;100732.56;1773360;79;22376;-64
2022/03/02 07:46:36;;;;;;;86.55;33.15;;;;;;;1.36;74.92;100731.70;1770237;79;20957;-64
2022/03/02 07:49:04;;;;;;;84.83;31.62;;;;;;;1.52;75.30;100728.37;1772387;80;20927;-64
2022/03/02 07:51:35;;;;;;;83.30;30.40;;;;;;;1.73;75.30;100733.19;1776245;80;20911;-64
2022/03/02 07:54:05;;;;;;;48.78;28.55;;;;;;;1.83;75.07;100740.12;1773565;80;20950;-64
2022/03/02 07:56:33;;;;;;;40.98;24.72;;;;;;;1.99;75.43;100741.91;1777832;80;21841;-64
2022/03/02 07:59:07;;;;;;;34.95;22.27;;;;;;;2.19;75.39;100735.97;1769413;80;20950;-64
2022/03/02 08:01:36;;;;;;;38.73;21.33;;;;;;;2.30;75.29;100738.16;1778899;80;20922;-64
2022/03/02 08:04:06;;;;;;;32.50;20.32;;;;;;;2.44;75.18;100730.02;1777845;80;20982;-64
2022/03/02 08:06:36;;;;;;;40.12;20.62;;;;;;;2.54;75.14;100729.59;1774230;80;20952;-64
2022/03/02 08:09:05;;;;;;;31.15;19.25;;;;;;;2.69;74.97;100726.20;1772561;80;21062;-64
2022/03/02 08:11:37;;;;;;;34.23;20.48;;;;;;;2.79;74.97;100726.62;1768745;79;20942;-65
2022/03/02 08:14:05;;;;;;;27.32;17.73;;;;;;;2.93;74.90;100721.90;1777508;79;21533;-64
2022/03/02 08:16:33;;;;;;;28.67;18.32;;;;;;;3.07;74.94;100725.33;1761490;79;20949;-64
2022/03/02 08:19:02;;;;;;;30.27;18.37;;;;;;;3.15;74.67;100728.77;1759082;80;20903;-64
2022/03/02 08:21:35;;;;;;;33.18;19.32;;;;;;;3.22;74.61;100719.28;1761658;80;21056;-64
2022/03/02 08:24:05;;;;;;;30.65;19.15;;;;;;;3.27;74.48;100715.84;1769210;79;20904;-64
2022/03/02 08:26:35;;;;;;;29.05;19.27;;;;;;;3.39;74.58;100719.26;1770299;80;21480;-64
2022/03/02 08:29:10;;;;;;;30.97;19.15;;;;;;;3.50;74.43;100712.34;1777894;80;20950;-64
2022/03/02 08:31:40;;;;;;;29.27;19.15;;;;;;;3.52;74.04;100714.50;1778184;79;20942;-64
2022/03/02 08:34:11;;;;;;;30.40;17.12;;;;;;;3.48;73.97;100711.52;1768359;80;21066;-64
2022/03/02 08:36:38;;;;;;;37.55;19.15;;;;;;;3.39;73.31;100712.41;1778128;80;20927;-64
2022/03/02 08:39:11;;;;;;;28.52;17.50;;;;;;;3.42;73.70;100714.09;1776322;79;26338;-64
2022/03/02 08:41:39;;;;;;;34.98;19.82;;;;;;;3.50;73.49;100709.77;1773820;79;20970;-64
2022/03/02 08:44:12;;;;;;;32.78;19.98;;;;;;;3.49;73.40;100708.91;1760993;79;20950;-64
2022/03/02 08:46:41;;;;;;;33.55;18.75;;;;;;;3.51;73.34;100699.89;1762545;79;21100;-64
2022/03/02 08:49:09;;;;;;;33.00;17.85;;;;;;;3.56;73.32;100697.72;1767684;80;20907;-64
2022/03/02 08:51:38;;;;;;;33.45;18.73;;;;;;;3.66;73.29;100692.52;1742695;80;20875;-64
2022/03/02 08:54:05;;;;;;;32.38;19.10;;;;;;;3.70;73.06;100689.92;1774027;80;20969;-65
2022/03/02 08:56:37;;;;;;;27.60;18.57;;;;;;;3.78;73.07;100690.76;1762040;79;20899;-65
2022/03/02 08:59:03;;;;;;;30.45;18.45;;;;;;;3.89;73.03;100690.69;1778323;80;21108;-64
2022/03/02 09:01:32;;;;;;;29.48;18.30;;;;;;;4.03;73.17;100688.04;1777790;79;20932;-64
2022/03/02 09:04:00;;;;;;;27.93;17.85;;;;;;;4.14;72.73;100687.55;1780966;80;20970;-65
2022/03/02 09:06:27;;;;;;;29.07;18.35;;;;;;;4.15;72.79;100693.16;1784423;80;21488;-66
2022/03/02 09:08:57;;;;;;;28.32;17.10;;;;;;;4.19;72.81;100694.00;1772810;80;20886;-68
2022/03/02 09:11:24;;;;;;;26.90;17.50;;;;;;;4.19;72.91;100679.34;1768931;80;21000;-66
2022/03/02 09:13:51;;;;;;;25.73;17.53;;;;;;;4.37;72.70;100687.84;1779968;79;20859;-66
2022/03/02 09:16:20;;;;;;;28.75;18.42;;;;;;;4.49;72.70;100682.61;1782065;79;20922;-65
2022/03/02 09:18:47;;;;;;;30.68;18.52;;;;;;;4.57;72.43;100679.53;1763128;79;20898;-65
2022/03/02 09:21:16;;;;;;;30.37;17.95;;;;;;;4.62;72.35;100679.07;1780200;79;20935;-65
2022/03/02 09:23:45;;;;;;;29.45;17.80;;;;;;;4.71;72.38;100675.55;1766981;80;21255;-65
2022/03/02 09:26:15;;;;;;;25.05;17.42;;;;;;;4.87;72.29;100671.09;1783593;79;20935;-65
2022/03/02 09:28:50;;;;;;;25.35;16.85;;;;;;;4.99;72.14;100669.70;1784570;79;20934;-65
2022/03/02 09:31:19;;;;;;;27.85;15.35;;;;;;;5.10;72.05;100667.87;1778204;79;20868;-67
2022/03/02 09:33:56;;;;;;;23.40;15.85;;;;;;;5.24;71.76;100663.00;1776891;80;21363;-65
2022/03/02 09:36:26;;;;;;;26.87;15.00;;;;;;;5.26;71.37;100663.81;1777961;79;21472;-66
2022/03/02 09:38:54;;;;;;;24.02;14.80;;;;;;;5.32;71.18;100652.98;1771162;80;20906;-66
2022/03/02 09:41:49;;;;;;;25.75;14.83;;;;;;;5.43;71.47;100652.83;1774362;80;20867;-66
2022/03/02 09:44:20;;;;;;;25.05;16.07;;;;;;;5.58;70.65;100643.60;1771082;80;21613;-64
2022/03/02 09:46:51;;;;;;;22.02;15.38;;;;;;;5.63;70.70;100648.73;1783107;79;20963;-65
2022/03/02 09:49:21;;;;;;;29.30;13.98;;;;;;;5.83;71.05;100639.41;1782111;79;21714;-65
2022/03/02 09:52:07;;;;;;;18.40;12.90;;;;;;;6.05;70.92;100630.50;1782111;79;21476;-65
2022/03/02 09:54:39;;;;;;;17.95;13.53;;;;;;;6.18;70.83;100635.50;1754883;79;20902;-65
2022/03/02 09:57:08;;;;;;;20.97;13.43;;;;;;;6.30;70.70;100631.41;1766913;79;20903;-65
2022/03/02 09:59:41;;;;;;;22.45;15.48;;;;;;;6.49;70.67;100636.73;1770308;79;20938;-67
2022/03/02 10:02:11;;;;;;;25.17;14.55;;;;;;;6.67;70.57;100636.89;1773592;80;22276;-65
2022/03/02 10:04:44;;;;;;;20.32;13.35;;;;;;;6.80;70.33;100632.33;1752147;80;20878;-65
2022/03/02 10:07:28;;;;;;;18.80;11.63;;;;;;;6.91;69.93;100630.41;1773099;79;21477;-66
2022/03/02 10:10:10;;;;;;;25.70;13.65;;;;;;;7.06;69.79;100634.94;1775660;79;21021;-66
2022/03/02 10:12:41;;;;;;;16.87;11.18;;;;;;;7.14;69.63;100636.92;1777319;79;21805;-66
2022/03/02 10:15:12;;;;;;;14.95;10.40;;;;;;;7.21;69.31;100635.94;1783927;79;21043;-66
2022/03/02 10:17:43;;;;;;;17.40;10.45;;;;;;;7.37;69.28;100632.16;1778642;79;21467;-66
2022/03/02 10:20:14;;;;;;;15.30;9.83;;;;;;;7.46;68.88;100619.88;1776169;80;20952;-67
2022/03/02 10:22:58;;;;;;;17.12;12.13;;;;;;;7.46;68.31;100618.58;1748531;80;21215;-67
2022/03/02 10:25:47;;;;;;;21.40;10.23;;;;;;;7.43;68.61;100612.15;1777758;79;21445;-66
2022/03/02 10:28:24;;;;;;;13.85;10.00;;;;;;;7.45;68.38;100615.13;1768202;80;21185;-66
2022/03/02 10:31:15;;;;;;;14.43;9.78;;;;;;;7.49;68.30;100617.22;1772167;80;20883;-67
2022/03/02 10:33:47;;;;;;;22.10;12.43;;;;;;;7.55;68.12;100617.08;1766827;79;20896;-67
2022/03/02 10:36:15;;;;;;;12.33;9.75;;;;;;;7.48;67.86;100618.08;1758808;79;21080;-67
2022/03/02 10:39:05;;;;;;;13.05;9.50;;;;;;;7.50;67.78;100614.56;1774564;79;20938;-68
2022/03/02 10:41:37;;;;;;;14.95;10.55;;;;;;;7.50;67.30;100611.13;1763769;80;21073;-67
2022/03/02 10:44:10;;;;;;;15.05;10.28;;;;;;;7.39;67.16;100612.63;1770888;79;20966;-66
2022/03/02 10:46:40;;;;;;;14.55;10.65;;;;;;;7.42;67.32;100605.22;1772025;79;20957;-68
2022/03/02 10:49:20;;;;;;;13.10;9.75;;;;;;;7.32;66.95;100604.56;1776768;79;20939;-67
2022/03/02 10:51:56;;;;;;;18.52;10.43;;;;;;;7.33;66.03;100604.52;1771810;79;21460;-67
2022/03/02 10:54:26;;;;;;;14.28;10.58;;;;;;;7.15;66.45;100599.70;1770057;79;21715;-67
2022/03/02 10:56:54;;;;;;;14.78;10.23;;;;;;;7.19;66.70;100598.73;1768235;80;21014;-66
2022/03/02 10:59:24;;;;;;;21.27;10.55;;;;;;;7.33;66.72;100601.92;1769953;79;20993;-67
2022/03/02 11:01:57;;;;;;;11.68;9.35;;;;;;;7.47;66.43;100590.40;1770987;80;20938;-67
2022/03/02 11:04:29;;;;;;;15.00;9.78;;;;;;;7.59;66.51;100591.46;1758693;79;21023;-66
2022/03/02 11:06:56;;;;;;;9.70;7.33;;;;;;;7.69;66.12;100583.86;1768116;80;21268;-68
2022/03/02 11:09:33;;;;;;;11.28;8.45;;;;;;;7.65;65.64;100578.33;1768486;79;20978;-67
2022/03/02 11:12:02;;;;;;;15.38;9.58;;;;;;;7.58;65.08;100581.94;1773152;79;20926;-68
2022/03/02 11:14:29;;;;;;;15.65;8.28;;;;;;;7.61;65.37;100575.36;1764650;79;20962;-68
2022/03/02 11:17:16;;;;;;;15.95;10.45;;;;;;;7.60;64.09;100576.27;1765451;80;20931;-66
2022/03/02 11:19:46;;;;;;;13.88;9.25;;;;;;;7.26;63.64;100571.77;1771680;79;21051;-66
2022/03/02 11:22:19;;;;;;;15.60;9.48;;;;;;;6.89;62.08;100572.48;1775117;79;20961;-66
2022/03/02 11:24:47;;;;;;;18.77;10.85;;;;;;;6.61;63.19;100573.84;1778123;79;20903;-66
2022/03/02 11:27:31;;;;;;;16.37;10.43;;;;;;;6.59;63.47;100565.25;1764314;79;20887;-66